createdAt,value
2018-07-14T00:01:42.922Z,97200.65
2018-07-14T00:04:12.460Z,97204.48
2018-07-14T00:06:42.507Z,97198.98
2018-07-14T00:09:13.472Z,97199.95
2018-07-14T00:11:43.282Z,97197.39
2018-07-14T00:14:13.965Z,97193.59
2018-07-14T00:16:43.803Z,97189.75
2018-07-14T00:19:14.391Z,97192.77
2018-07-14T00:21:44.041Z,97189.80
2018-07-14T00:24:13.144Z,97192.36
2018-07-14T00:26:42.173Z,97187.25
2018-07-14T00:29:12.382Z,97189.83
2018-07-14T00:31:43.057Z,97189.88
2018-07-14T00:34:12.219Z,97192.50
2018-07-14T00:36:42.886Z,97185.70
2018-07-14T00:52:06.917Z,97183.59
2018-07-14T00:54:36.290Z,97180.73
2018-07-14T00:57:06.975Z,97178.23
2018-07-14T00:59:37.618Z,97185.28
2018-07-14T01:02:08.507Z,97188.89
2018-07-14T01:04:37.874Z,97185.53
2018-07-14T01:07:07.180Z,97187.22
2018-07-14T01:09:37.785Z,97186.47
2018-07-14T01:12:07.840Z,97190.80
2018-07-14T01:14:38.494Z,97179.67
2018-07-14T01:17:08.524Z,97177.11
2018-07-14T01:19:39.552Z,97179.67
2018-07-14T01:22:10.625Z,97186.52
2018-07-14T01:24:39.869Z,97184.75
2018-07-14T01:27:10.238Z,97183.91
2018-07-14T01:29:41.125Z,97179.63
2018-07-14T01:32:11.586Z,97188.59
2018-07-14T01:34:40.780Z,97173.22
2018-07-14T01:37:11.445Z,97178.83
2018-07-14T01:39:40.997Z,97172.86
2018-07-14T01:42:10.070Z,97179.73
2018-07-14T01:44:39.963Z,97175.47
2018-07-14T01:47:09.335Z,97173.34
2018-07-14T01:49:40.640Z,97174.59
2018-07-14T01:52:11.275Z,97178.43
2018-07-14T01:54:40.467Z,97177.15
2018-07-14T01:57:10.604Z,97172.11
2018-07-14T01:59:40.892Z,97178.95
2018-07-14T02:02:11.812Z,97174.71
2018-07-14T02:04:42.287Z,97166.19
2018-07-14T02:07:12.657Z,97175.56
2018-07-14T02:09:42.455Z,97170.46
2018-07-14T02:12:11.511Z,97171.33
2018-07-14T02:14:41.267Z,97176.89
2018-07-14T02:17:10.520Z,97178.19
2018-07-14T02:19:41.311Z,97179.48
2018-07-14T02:22:11.898Z,97176.53
2018-07-14T02:24:44.893Z,97181.70
2018-07-14T02:27:13.958Z,97181.29
2018-07-14T02:29:44.126Z,97179.61
2018-07-14T02:32:14.623Z,97177.09
2018-07-14T02:34:44.976Z,97181.81
2018-07-14T02:37:14.035Z,97186.08
2018-07-14T02:39:43.626Z,97175.03
2018-07-14T02:42:12.873Z,97183.99
2018-07-14T02:44:42.876Z,97185.30
2018-07-14T02:47:12.591Z,97189.61
2018-07-14T02:49:41.893Z,97190.45
2018-07-14T02:52:11.949Z,97187.49
2018-07-14T02:54:42.590Z,97189.21
2018-07-14T02:57:12.112Z,97185.41
2018-07-14T02:59:42.354Z,97189.67
2018-07-14T03:02:11.376Z,97192.67
2018-07-14T03:04:41.522Z,97185.03
2018-07-14T03:07:11.349Z,97191.42
2018-07-14T03:09:40.440Z,97187.99
2018-07-14T03:12:09.530Z,97185.02
2018-07-14T03:14:40.611Z,97183.78
2018-07-14T03:17:10.663Z,97182.09
2018-07-14T03:19:41.077Z,97183.80
2018-07-14T03:22:10.596Z,97181.28
2018-07-14T03:24:40.941Z,97176.19
2018-07-14T03:27:11.300Z,97193.22
2018-07-14T03:29:41.966Z,97184.70
2018-07-14T03:32:12.329Z,97194.09
2018-07-14T03:34:43.483Z,97194.09
2018-07-14T03:37:13.000Z,97202.59
2018-07-14T03:39:43.713Z,97196.22
2018-07-14T03:42:14.348Z,97196.63
2018-07-14T03:44:45.181Z,97196.63
2018-07-14T03:47:16.159Z,97198.31
2018-07-14T03:49:45.229Z,97200.95
2018-07-14T03:52:14.549Z,97204.79
2018-07-14T03:54:44.706Z,97206.94
2018-07-14T03:57:15.436Z,97217.16
2018-07-14T03:59:44.876Z,97218.44
2018-07-14T04:02:15.225Z,97218.87
2018-07-14T04:04:45.557Z,97209.51
2018-07-14T04:07:16.524Z,97216.34
2018-07-14T04:09:47.241Z,97212.91
2018-07-14T04:12:16.519Z,97209.89
2018-07-14T04:14:47.648Z,97213.73
2018-07-14T04:17:16.914Z,97211.14
2018-07-14T04:19:45.937Z,97213.66
2018-07-14T04:22:15.221Z,97206.36
2018-07-14T04:24:45.620Z,97195.27
2018-07-14T04:27:16.537Z,97204.19
2018-07-14T04:29:47.160Z,97198.59
2018-07-14T04:32:17.451Z,97209.21
2018-07-14T04:34:47.988Z,97201.97
2018-07-14T04:37:18.849Z,97205.81
2018-07-14T04:39:48.213Z,97192.17
2018-07-14T04:42:18.701Z,97198.98
2018-07-14T04:44:49.497Z,97199.04
2018-07-14T04:47:20.244Z,97204.97
2018-07-14T04:49:49.515Z,97203.69
2018-07-14T04:52:19.559Z,97200.66
2018-07-14T04:54:48.643Z,97208.67
2018-07-14T04:57:18.036Z,97209.05
2018-07-14T04:59:47.354Z,97212.39
2018-07-14T05:02:16.401Z,97216.58
2018-07-14T05:05:16.907Z,97215.69
2018-07-14T05:07:47.542Z,97213.57
2018-07-14T05:10:18.292Z,97212.65
2018-07-14T05:12:49.234Z,97217.27
2018-07-14T05:15:19.966Z,97215.97
2018-07-14T05:17:51.488Z,97224.02
2018-07-14T05:20:21.215Z,97225.69
2018-07-14T05:22:50.517Z,97220.96
2018-07-14T05:25:19.716Z,97216.64
2018-07-14T05:27:50.083Z,97213.20
2018-07-14T05:30:20.239Z,97212.75
2018-07-14T05:32:49.865Z,97213.59
2018-07-14T05:35:20.644Z,97213.58
2018-07-14T05:37:50.694Z,97214.77
2018-07-14T05:40:21.218Z,97219.43
2018-07-14T05:42:51.964Z,97213.34
2018-07-14T05:45:22.234Z,97215.86
2018-07-14T05:47:53.227Z,97220.11
2018-07-14T05:50:22.716Z,97221.77
2018-07-14T05:52:52.916Z,97222.09
2018-07-14T05:55:54.546Z,97219.83
2018-07-14T05:58:23.844Z,97226.11
2018-07-14T06:00:53.739Z,97234.55
2018-07-14T06:03:24.443Z,97217.78
2018-07-14T06:05:54.089Z,97215.94
2018-07-14T06:08:24.268Z,97214.55
2018-07-14T06:10:54.813Z,97214.00
2018-07-14T06:13:25.846Z,97214.23
2018-07-14T06:15:56.100Z,97210.27
2018-07-14T06:18:25.230Z,97216.95
2018-07-14T06:20:55.162Z,97225.40
2018-07-14T06:23:25.071Z,97224.48
2018-07-14T06:25:56.070Z,97223.54
2018-07-14T06:28:25.510Z,97221.77
2018-07-14T06:30:55.958Z,97219.54
2018-07-14T06:33:26.209Z,97220.33
2018-07-14T06:35:56.685Z,97215.62
2018-07-14T06:38:27.100Z,97215.44
2018-07-14T06:40:57.084Z,97216.23
2018-07-14T06:43:26.340Z,97217.91
2018-07-14T06:45:55.525Z,97221.27
2018-07-14T06:48:25.791Z,97218.05
2018-07-14T06:50:56.426Z,97219.17
2018-07-14T06:53:25.725Z,97218.00
2018-07-14T06:55:55.671Z,97221.65
2018-07-14T06:58:25.149Z,97219.21
2018-07-14T07:00:55.314Z,97224.03
2018-07-14T07:03:24.431Z,97226.77
2018-07-14T07:05:53.826Z,97223.38
2018-07-14T07:08:23.372Z,97224.88
2018-07-14T07:10:53.880Z,97219.36
2018-07-14T07:13:23.422Z,97217.68
2018-07-14T07:15:53.985Z,97223.34
2018-07-14T07:18:23.050Z,97225.62
2018-07-14T07:20:53.830Z,97222.09
2018-07-14T07:23:24.913Z,97228.39
2018-07-14T07:25:55.556Z,97222.34
2018-07-14T07:28:24.584Z,97223.23
2018-07-14T07:30:54.002Z,97229.20
2018-07-14T07:33:23.578Z,97227.91
2018-07-14T07:35:53.818Z,97220.18
2018-07-14T07:38:23.139Z,97223.15
2018-07-14T07:40:54.420Z,97226.20
2018-07-14T07:43:24.907Z,97231.27
2018-07-14T07:45:55.204Z,97223.64
2018-07-14T07:48:24.681Z,97219.91
2018-07-14T07:50:53.750Z,97216.94
2018-07-14T07:53:23.888Z,97221.09
2018-07-14T07:55:55.468Z,97217.64
2018-07-14T07:58:24.587Z,97217.30
2018-07-14T08:00:54.753Z,97215.17
2018-07-14T08:03:23.819Z,97212.92
2018-07-14T08:05:54.389Z,97216.86
2018-07-14T08:08:23.978Z,97211.67
2018-07-14T08:10:53.097Z,97211.61
2018-07-14T08:13:23.021Z,97212.83
2018-07-14T08:15:52.256Z,97210.36
2018-07-14T08:18:21.587Z,97212.19
2018-07-14T08:20:51.611Z,97207.38
2018-07-14T08:23:22.581Z,97200.42
2018-07-14T08:25:51.789Z,97203.17
2018-07-14T08:28:22.081Z,97203.73
2018-07-14T08:30:51.631Z,97190.64
2018-07-14T08:33:22.283Z,97197.55
2018-07-14T08:35:52.710Z,97192.44
2018-07-14T08:38:22.569Z,97195.17
2018-07-14T08:40:52.493Z,97190.47
2018-07-14T08:43:21.552Z,97185.83
2018-07-14T08:45:51.539Z,97185.72
2018-07-14T08:48:22.285Z,97187.58
2018-07-14T08:50:51.705Z,97188.20
2018-07-14T08:53:21.185Z,97189.13
2018-07-14T08:55:51.956Z,97194.75
2018-07-14T08:58:26.097Z,97194.05
2018-07-14T09:00:56.030Z,97198.12
2018-07-14T09:03:27.084Z,97190.86
2018-07-14T09:05:58.020Z,97193.45
2018-07-14T09:08:29.342Z,97195.03
2018-07-14T09:10:59.524Z,97200.86
2018-07-14T09:13:30.278Z,97206.70
2018-07-14T09:16:00.678Z,97210.47
2018-07-14T09:18:31.115Z,97205.11
2018-07-14T09:21:01.335Z,97205.45
2018-07-14T09:23:32.019Z,97199.20
2018-07-14T09:26:01.584Z,97202.34
2018-07-14T09:28:31.977Z,97196.51
2018-07-14T09:31:01.859Z,97197.22
2018-07-14T09:33:32.223Z,97194.77
2018-07-14T09:36:02.304Z,97200.27
2018-07-14T09:38:32.822Z,97193.56
2018-07-14T09:41:02.671Z,97189.28
2018-07-14T09:43:33.142Z,97187.16
2018-07-14T09:46:03.512Z,97190.94
2018-07-14T09:48:34.518Z,97185.04
2018-07-14T09:51:05.173Z,97185.20
2018-07-14T09:53:35.756Z,97182.86
2018-07-14T09:56:05.949Z,97181.22
2018-07-14T09:58:36.161Z,97182.37
2018-07-14T10:01:10.880Z,97182.86
2018-07-14T10:03:41.470Z,97178.99
2018-07-14T10:06:10.827Z,97175.88
2018-07-14T10:08:41.289Z,97171.98
2018-07-14T10:11:11.855Z,97173.91
2018-07-14T10:13:42.055Z,97176.39
2018-07-14T10:16:12.296Z,97170.53
2018-07-14T10:18:43.021Z,97174.95
2018-07-14T10:21:13.379Z,97171.58
2018-07-14T10:23:44.701Z,97171.43
2018-07-14T10:26:14.592Z,97166.90
2018-07-14T10:28:45.199Z,97161.65
2018-07-14T10:31:15.814Z,97154.62
2018-07-14T10:33:46.521Z,97155.80
2018-07-14T10:36:17.145Z,97149.28
2018-07-14T10:38:47.618Z,97147.55
2018-07-14T10:41:17.115Z,97145.78
2018-07-14T10:43:46.275Z,97139.97
2018-07-14T10:46:47.068Z,97136.16
2018-07-14T10:49:17.873Z,97133.88
2018-07-14T10:51:47.790Z,97134.56
2018-07-14T10:54:18.757Z,97135.83
2018-07-14T10:56:49.276Z,97135.20
2018-07-14T10:59:18.488Z,97127.97
2018-07-14T11:01:49.078Z,97115.94
2018-07-14T11:04:18.902Z,97117.39
2018-07-14T11:06:49.122Z,97111.59
2018-07-14T11:09:19.326Z,97102.50
2018-07-14T11:11:49.801Z,97107.56
2018-07-14T11:14:20.175Z,97108.53
2018-07-14T11:16:50.469Z,97109.38
2018-07-14T11:19:21.829Z,97105.71
2018-07-14T11:21:52.500Z,97112.91
2018-07-14T11:24:23.006Z,97111.54
2018-07-14T11:26:53.418Z,97099.89
2018-07-14T11:29:24.067Z,97099.76
2018-07-14T11:31:54.753Z,97096.39
2018-07-14T11:34:23.808Z,97100.52
2018-07-14T11:36:53.671Z,97091.02
2018-07-14T11:39:24.147Z,97095.78
2018-07-14T11:41:54.114Z,97110.67
2018-07-14T11:44:24.056Z,97110.55
2018-07-14T11:46:53.085Z,97114.30
2018-07-14T11:49:23.219Z,97112.93
2018-07-14T11:51:53.155Z,97115.11
2018-07-14T11:54:23.697Z,97118.41
2018-07-14T11:56:54.374Z,97124.89
2018-07-14T11:59:24.920Z,97133.08
2018-07-14T12:01:54.182Z,97135.17
2018-07-14T12:04:23.837Z,97144.09
2018-07-14T12:06:54.715Z,97152.92
2018-07-14T12:09:23.938Z,97160.53
2018-07-14T12:11:53.842Z,97152.60
2018-07-14T12:14:24.205Z,97149.20
2018-07-14T12:16:55.272Z,97158.37
2018-07-14T12:19:25.548Z,97153.53
2018-07-14T12:21:54.709Z,97155.82
2018-07-14T12:24:24.246Z,97168.55
2018-07-14T12:26:54.225Z,97168.02
2018-07-14T12:29:23.902Z,97167.34
2018-07-14T12:31:53.148Z,97160.32
2018-07-14T12:34:23.664Z,97160.64
2018-07-14T12:36:53.582Z,97149.27
2018-07-14T12:39:23.683Z,97152.64
2018-07-14T12:41:54.143Z,97144.47
2018-07-14T12:44:23.900Z,97135.66
2018-07-14T12:46:54.358Z,97135.67
2018-07-14T12:49:24.504Z,97132.42
2018-07-14T12:51:54.149Z,97131.77
2018-07-14T12:54:23.203Z,97117.38
2018-07-14T12:56:53.261Z,97116.41
2018-07-14T12:59:23.162Z,97112.77
2018-07-14T13:01:54.214Z,97109.03
2018-07-14T13:04:23.290Z,97093.51
2018-07-14T13:06:53.190Z,97090.27
2018-07-14T13:09:23.583Z,97098.94
2018-07-14T13:11:53.058Z,97094.09
2018-07-14T13:14:22.828Z,97097.54
2018-07-14T13:16:53.504Z,97094.20
2018-07-14T13:19:22.985Z,97093.38
2018-07-14T13:21:53.653Z,97095.03
2018-07-14T13:24:24.128Z,97096.50
2018-07-14T13:26:55.028Z,97083.28
2018-07-14T13:29:25.420Z,97077.64
2018-07-14T13:31:54.640Z,97075.35
2018-07-14T13:34:23.731Z,97072.20
2018-07-14T13:36:54.128Z,97075.25
2018-07-14T13:39:25.135Z,97066.35
2018-07-14T13:41:54.908Z,97067.00
2018-07-14T13:44:26.278Z,97057.94
2018-07-14T13:46:55.376Z,97058.53
2018-07-14T13:49:25.891Z,97050.07
2018-07-14T13:51:56.284Z,97049.06
2018-07-14T13:54:25.489Z,97049.48
2018-07-14T13:56:55.047Z,97045.09
2018-07-14T13:59:24.901Z,97040.78
2018-07-14T14:01:54.771Z,97037.84
2018-07-14T14:04:23.831Z,97037.34
2018-07-14T14:06:53.282Z,97023.79
2018-07-14T14:09:23.160Z,97027.61
2018-07-14T14:11:53.033Z,97025.76
2018-07-14T14:14:22.144Z,97019.39
2018-07-14T14:16:51.285Z,97012.94
2018-07-14T14:19:21.021Z,97011.63
2018-07-14T14:22:20.917Z,97011.80
2018-07-14T14:24:50.529Z,97019.85
2018-07-14T14:27:19.560Z,97000.59
2018-07-14T14:29:49.216Z,97000.45
2018-07-14T14:32:19.120Z,97010.54
2018-07-14T14:34:48.614Z,97001.91
2018-07-14T14:37:18.783Z,96995.36
2018-07-14T14:39:48.039Z,96993.72
2018-07-14T14:42:17.055Z,96991.13
2018-07-14T14:44:46.941Z,96988.73
2018-07-14T14:47:16.340Z,96988.36
2018-07-14T14:49:45.396Z,96991.80
2018-07-14T14:52:15.486Z,96988.80
2018-07-14T14:54:45.484Z,96981.88
2018-07-14T14:57:15.517Z,96987.33
2018-07-14T14:59:45.069Z,96978.98
2018-07-14T15:02:16.505Z,96976.39
2018-07-14T15:04:46.521Z,96976.64
2018-07-14T15:07:15.674Z,96972.83
2018-07-14T15:09:45.920Z,96973.20
2018-07-14T15:12:15.153Z,96974.59
2018-07-14T15:14:45.019Z,96979.53
2018-07-14T15:17:16.446Z,96982.73
2018-07-14T15:19:46.554Z,96991.47
2018-07-14T15:22:16.487Z,96994.47
2018-07-14T15:24:46.543Z,96985.06
2018-07-14T15:27:17.038Z,96990.64
2018-07-14T15:29:46.657Z,96985.81
2018-07-14T15:32:15.815Z,96980.91
2018-07-14T15:34:45.193Z,96979.77
2018-07-14T15:37:15.154Z,96982.47
2018-07-14T15:39:44.198Z,96975.74
2018-07-14T15:42:14.107Z,96974.64
2018-07-14T15:44:44.060Z,96975.20
2018-07-14T15:47:13.346Z,96970.84
2018-07-14T15:49:43.330Z,96972.05
2018-07-14T15:52:12.877Z,96973.07
2018-07-14T15:54:42.784Z,96967.85
2018-07-14T15:57:12.660Z,96968.67
2018-07-14T15:59:41.711Z,96973.49
2018-07-14T16:02:11.716Z,96970.48
2018-07-14T16:04:41.609Z,96974.25
2018-07-14T16:07:10.643Z,96977.45
2018-07-14T16:09:39.823Z,96975.40
2018-07-14T16:12:09.494Z,96975.39
2018-07-14T16:14:38.532Z,96970.65
2018-07-14T16:17:08.104Z,96973.17
2018-07-14T16:19:37.618Z,96969.20
2018-07-14T16:22:07.825Z,96970.09
2018-07-14T16:24:36.856Z,96973.00
2018-07-14T16:27:06.317Z,96974.70
2018-07-14T16:29:36.178Z,96971.20
2018-07-14T16:32:05.876Z,96973.64
2018-07-14T16:34:35.805Z,96967.47
2018-07-14T16:37:05.412Z,96963.33
2018-07-14T16:39:34.451Z,96965.73
2018-07-14T16:42:03.543Z,96966.48
2018-07-14T16:44:33.364Z,96968.86
2018-07-14T16:47:02.411Z,96963.45
2018-07-14T16:49:32.212Z,96961.19
2018-07-14T16:52:02.206Z,96967.86
2018-07-14T16:54:31.711Z,96968.53
2018-07-14T16:57:01.935Z,96961.88
2018-07-14T16:59:31.011Z,96960.91
2018-07-14T17:02:00.212Z,96955.16
2018-07-14T17:05:00.107Z,96952.66
2018-07-14T17:07:29.785Z,96950.46
2018-07-14T17:09:59.745Z,96949.66
2018-07-14T17:12:28.866Z,96945.97
2018-07-14T17:14:57.926Z,96940.45
2018-07-14T17:17:27.845Z,96938.70
2018-07-14T17:19:57.109Z,96934.61
2018-07-14T17:22:26.373Z,96940.88
2018-07-14T17:24:56.160Z,96936.53
2018-07-14T17:27:25.187Z,96936.45
2018-07-14T17:29:54.334Z,96942.55
2018-07-14T17:32:24.219Z,96939.22
2018-07-14T17:34:53.257Z,96940.12
2018-07-14T17:37:23.186Z,96940.17
2018-07-14T17:39:53.082Z,96939.48
2018-07-14T17:42:23.120Z,96941.22
2018-07-14T17:44:52.723Z,96934.52
2018-07-14T17:47:22.508Z,96936.56
2018-07-14T17:49:52.620Z,96941.84
2018-07-14T17:52:21.716Z,96930.77
2018-07-14T17:54:51.056Z,96935.61
2018-07-14T17:57:20.185Z,96934.36
2018-07-14T17:59:49.301Z,96927.55
2018-07-14T18:02:20.496Z,96923.05
2018-07-14T18:04:51.238Z,96929.09
2018-07-14T18:07:21.496Z,96928.05
2018-07-14T18:09:53.087Z,96925.89
2018-07-14T18:12:22.170Z,96922.84
2018-07-14T18:14:52.125Z,96923.13
2018-07-14T18:17:22.622Z,96927.20
2018-07-14T18:19:51.868Z,96931.68
2018-07-14T18:22:22.520Z,96937.63
2018-07-14T18:24:52.602Z,96933.48
2018-07-14T18:27:22.148Z,96937.56
2018-07-14T18:29:53.646Z,96931.50
2018-07-14T18:32:22.805Z,96936.43
2018-07-14T18:34:53.635Z,96930.20
2018-07-14T18:37:22.909Z,96939.95
2018-07-14T18:39:52.834Z,96933.52
2018-07-14T18:42:22.761Z,96937.66
2018-07-14T18:44:52.976Z,96931.14
2018-07-14T18:47:22.136Z,96931.02
2018-07-14T18:49:52.066Z,96926.94
2018-07-14T18:52:21.624Z,96926.34
2018-07-14T18:54:52.483Z,96931.33
2018-07-14T18:57:22.780Z,96927.95
2018-07-14T18:59:52.650Z,96932.70
2018-07-14T19:02:22.338Z,96940.78
2018-07-14T19:04:52.324Z,96940.14
2018-07-14T19:07:21.917Z,96950.88
2018-07-14T19:09:52.549Z,96947.23
2018-07-14T19:12:22.103Z,96952.78
2018-07-14T19:14:52.867Z,96952.84
2018-07-14T19:17:22.237Z,96948.05
2018-07-14T19:19:53.247Z,96949.17
2018-07-14T19:22:22.307Z,96956.21
2018-07-14T19:24:52.435Z,96953.48
2018-07-14T19:27:22.557Z,96962.79
2018-07-14T19:29:53.169Z,96965.53
2018-07-14T19:32:23.754Z,96967.08
2018-07-14T19:34:55.766Z,96970.80
2018-07-14T19:37:27.635Z,96972.31
2018-07-14T19:39:58.224Z,96973.32
2018-07-14T19:42:28.816Z,96984.67
2018-07-14T19:44:58.144Z,96978.03
2018-07-14T19:47:27.739Z,96977.84
2018-07-14T19:49:57.200Z,96984.55
2018-07-14T19:52:26.703Z,96991.71
2018-07-14T19:54:57.021Z,96991.09
2018-07-14T19:57:27.640Z,96996.64
2018-07-14T19:59:58.016Z,96993.08
2018-07-14T20:02:28.267Z,96994.98
2018-07-14T20:04:57.468Z,96993.89
2018-07-14T20:07:28.258Z,96996.17
2018-07-14T20:09:58.463Z,97001.95
2018-07-14T20:12:28.950Z,97000.34
2018-07-14T20:14:58.938Z,97004.73
2018-07-14T20:17:29.384Z,96998.84
2018-07-14T20:19:59.447Z,96996.38
2018-07-14T20:22:28.506Z,96999.89
2018-07-14T20:24:57.959Z,97004.80
2018-07-14T20:27:27.764Z,97005.41
2018-07-14T20:29:58.313Z,97004.82
2018-07-14T20:32:27.855Z,97005.86
2018-07-14T20:34:57.295Z,97004.31
2018-07-14T20:37:26.321Z,97010.45
2018-07-14T20:39:55.525Z,97007.08
2018-07-14T20:42:25.781Z,97006.07
2018-07-14T20:44:56.060Z,97008.55
2018-07-14T20:47:26.482Z,97013.50
2018-07-14T20:49:56.832Z,97009.78
2018-07-14T20:52:27.942Z,97009.10
2018-07-14T20:54:58.421Z,97010.14
2018-07-14T20:57:29.064Z,97008.63
2018-07-14T20:59:58.972Z,97014.77
2018-07-14T21:02:29.293Z,97007.23
2018-07-14T21:05:00.062Z,97008.30
2018-07-14T21:07:30.197Z,97017.80
2018-07-14T21:10:01.039Z,97019.67
2018-07-14T21:12:32.205Z,97022.41
2018-07-14T21:15:02.527Z,97025.61
2018-07-14T21:17:33.357Z,97022.75
2018-07-14T21:20:03.694Z,97019.43
2018-07-14T21:22:33.968Z,97017.05
2018-07-14T21:25:04.236Z,97019.38
2018-07-14T21:27:34.159Z,97022.92
2018-07-14T21:30:03.372Z,97025.16
2018-07-14T21:32:32.620Z,97026.13
2018-07-14T21:35:01.807Z,97029.33
2018-07-14T21:37:30.966Z,97031.56
2018-07-14T21:40:01.618Z,97025.70
2018-07-14T21:42:31.617Z,97019.97
2018-07-14T21:45:02.062Z,97020.14
2018-07-14T21:47:31.135Z,97024.53
2018-07-14T21:50:01.749Z,97025.56
2018-07-14T21:52:31.300Z,97035.17
2018-07-14T21:55:01.913Z,97024.58
2018-07-14T21:57:32.717Z,97027.32
2018-07-14T22:00:03.161Z,97029.55
2018-07-14T22:02:33.868Z,97018.53
2018-07-14T22:05:04.161Z,97019.91
2018-07-14T22:07:33.269Z,97017.00
2018-07-14T22:10:04.139Z,97008.63
2018-07-14T22:12:33.450Z,97016.39
2018-07-14T22:15:03.039Z,97017.48
2018-07-14T22:17:32.054Z,97022.36
2018-07-14T22:20:01.186Z,97014.38
2018-07-14T22:22:31.605Z,97027.31
2018-07-14T22:25:00.990Z,97024.78
2018-07-14T22:27:31.656Z,97023.49
2018-07-14T22:30:00.893Z,97022.67
2018-07-14T22:32:31.126Z,97026.57
2018-07-14T22:35:00.509Z,97031.31
2018-07-14T22:37:29.902Z,97031.36
2018-07-14T22:39:59.243Z,97022.47
2018-07-14T22:42:28.348Z,97020.45
2018-07-14T22:44:57.444Z,97026.09
2018-07-14T22:47:27.165Z,97027.91
2018-07-14T22:49:56.502Z,97028.84
2018-07-14T22:52:26.633Z,97028.91
2018-07-14T22:54:55.926Z,97032.45
2018-07-14T22:57:26.386Z,97026.52
2018-07-14T22:59:55.770Z,97024.92
2018-07-14T23:02:25.226Z,97022.84
2018-07-14T23:04:54.508Z,97021.67
2018-07-14T23:07:24.263Z,97021.31
2018-07-14T23:09:53.413Z,97019.30
2018-07-14T23:12:22.746Z,97033.16
2018-07-14T23:14:51.829Z,97027.30
2018-07-14T23:17:21.057Z,97020.52
2018-07-14T23:19:50.373Z,97031.75
2018-07-14T23:22:20.450Z,97028.36
2018-07-14T23:24:50.925Z,97021.11
2018-07-14T23:27:20.383Z,97027.53
2018-07-14T23:29:50.300Z,97022.86
2018-07-14T23:32:20.122Z,97021.97
2018-07-14T23:34:50.417Z,97022.80
2018-07-14T23:37:21.626Z,97022.86
2018-07-14T23:39:52.026Z,97022.92
2018-07-14T23:42:22.136Z,97021.20
2018-07-14T23:44:52.947Z,97018.28
2018-07-14T23:47:24.103Z,97017.48
2018-07-14T23:49:54.806Z,97013.66
2018-07-14T23:52:23.968Z,97015.07
2018-07-14T23:54:54.857Z,97010.83
2018-07-14T23:57:25.714Z,97008.29
2018-07-14T23:59:56.155Z,97009.33
